sensor_id;sensor_type;location;lat;lon;timestamp;temperature;humidity
69731;SHT31;56996;48.138;11.538;2022-07-03T00:02:10;19.01;58.45
69731;SHT31;56996;48.138;11.538;2022-07-03T00:04:37;18.98;58.59
69731;SHT31;56996;48.138;11.538;2022-07-03T00:07:03;18.96;58.72
69731;SHT31;56996;48.138;11.538;2022-07-03T00:09:29;18.97;58.80
69731;SHT31;56996;48.138;11.538;2022-07-03T00:11:56;18.97;58.87
69731;SHT31;56996;48.138;11.538;2022-07-03T00:14:22;18.96;58.72
69731;SHT31;56996;48.138;11.538;2022-07-03T00:16:48;18.98;58.61
69731;SHT31;56996;48.138;11.538;2022-07-03T00:19:14;18.99;58.57
69731;SHT31;56996;48.138;11.538;2022-07-03T00:21:53;19.01;58.61
69731;SHT31;56996;48.138;11.538;2022-07-03T00:27:12;19.07;58.54
69731;SHT31;56996;48.138;11.538;2022-07-03T00:29:41;19.09;58.52
69731;SHT31;56996;48.138;11.538;2022-07-03T00:32:13;19.11;58.44
69731;SHT31;56996;48.138;11.538;2022-07-03T00:34:45;19.12;58.72
69731;SHT31;56996;48.138;11.538;2022-07-03T00:37:16;19.13;58.66
69731;SHT31;56996;48.138;11.538;2022-07-03T00:39:42;19.16;58.74
69731;SHT31;56996;48.138;11.538;2022-07-03T00:42:10;19.15;58.91
69731;SHT31;56996;48.138;11.538;2022-07-03T00:44:47;19.14;59.19
69731;SHT31;56996;48.138;11.538;2022-07-03T00:47:17;19.14;59.26
69731;SHT31;56996;48.138;11.538;2022-07-03T00:49:48;19.14;59.31
69731;SHT31;56996;48.138;11.538;2022-07-03T00:52:17;19.13;59.29
69731;SHT31;56996;48.138;11.538;2022-07-03T00:54:52;19.13;59.41
69731;SHT31;56996;48.138;11.538;2022-07-03T00:57:22;19.11;59.55
69731;SHT31;56996;48.138;11.538;2022-07-03T00:59:51;19.10;59.63
69731;SHT31;56996;48.138;11.538;2022-07-03T01:02:26;19.09;59.56
69731;SHT31;56996;48.138;11.538;2022-07-03T01:05:49;19.07;59.54
69731;SHT31;56996;48.138;11.538;2022-07-03T01:17:02;18.98;59.82
69731;SHT31;56996;48.138;11.538;2022-07-03T01:30:46;18.79;60.41
69731;SHT31;56996;48.138;11.538;2022-07-03T01:33:17;18.72;60.30
69731;SHT31;56996;48.138;11.538;2022-07-03T01:35:57;18.66;60.32
69731;SHT31;56996;48.138;11.538;2022-07-03T01:38:37;18.63;60.46
69731;SHT31;56996;48.138;11.538;2022-07-03T01:41:06;18.60;60.38
69731;SHT31;56996;48.138;11.538;2022-07-03T01:46:15;18.60;60.50
69731;SHT31;56996;48.138;11.538;2022-07-03T01:48:45;18.60;60.62
69731;SHT31;56996;48.138;11.538;2022-07-03T01:51:15;18.63;60.74
69731;SHT31;56996;48.138;11.538;2022-07-03T01:53:44;18.63;60.83
69731;SHT31;56996;48.138;11.538;2022-07-03T01:56:13;18.64;60.86
69731;SHT31;56996;48.138;11.538;2022-07-03T01:58:40;18.62;60.87
69731;SHT31;56996;48.138;11.538;2022-07-03T02:03:47;18.56;61.05
69731;SHT31;56996;48.138;11.538;2022-07-03T02:06:29;18.57;61.07
69731;SHT31;56996;48.138;11.538;2022-07-03T02:09:33;18.55;61.21
69731;SHT31;56996;48.138;11.538;2022-07-03T02:12:11;18.52;61.39
69731;SHT31;56996;48.138;11.538;2022-07-03T02:14:40;18.50;61.57
69731;SHT31;56996;48.138;11.538;2022-07-03T02:17:19;18.47;61.63
69731;SHT31;56996;48.138;11.538;2022-07-03T02:19:54;18.45;61.64
69731;SHT31;56996;48.138;11.538;2022-07-03T02:22:29;18.43;61.83
69731;SHT31;56996;48.138;11.538;2022-07-03T02:30:51;18.33;62.43
69731;SHT31;56996;48.138;11.538;2022-07-03T02:33:24;18.30;62.57
69731;SHT31;56996;48.138;11.538;2022-07-03T02:35:55;18.25;62.73
69731;SHT31;56996;48.138;11.538;2022-07-03T02:38:23;18.20;62.92
69731;SHT31;56996;48.138;11.538;2022-07-03T02:41:09;18.17;63.05
69731;SHT31;56996;48.138;11.538;2022-07-03T02:43:49;18.10;63.44
69731;SHT31;56996;48.138;11.538;2022-07-03T02:51:57;17.99;64.17
69731;SHT31;56996;48.138;11.538;2022-07-03T02:54:33;17.98;64.51
69731;SHT31;56996;48.138;11.538;2022-07-03T02:57:13;17.96;64.81
69731;SHT31;56996;48.138;11.538;2022-07-03T03:05:26;17.85;65.71
69731;SHT31;56996;48.138;11.538;2022-07-03T03:09:04;17.83;65.98
69731;SHT31;56996;48.138;11.538;2022-07-03T03:11:42;17.79;66.42
69731;SHT31;56996;48.138;11.538;2022-07-03T03:14:13;17.77;66.61
69731;SHT31;56996;48.138;11.538;2022-07-03T03:16:50;17.74;66.87
69731;SHT31;56996;48.138;11.538;2022-07-03T03:19:21;17.70;67.10
69731;SHT31;56996;48.138;11.538;2022-07-03T03:21:56;17.68;67.32
69731;SHT31;56996;48.138;11.538;2022-07-03T03:24:35;17.67;67.61
69731;SHT31;56996;48.138;11.538;2022-07-03T03:27:01;17.65;67.79
69731;SHT31;56996;48.138;11.538;2022-07-03T03:29:28;17.65;67.97
69731;SHT31;56996;48.138;11.538;2022-07-03T03:31:55;17.63;68.12
69731;SHT31;56996;48.138;11.538;2022-07-03T03:34:28;17.62;68.28
69731;SHT31;56996;48.138;11.538;2022-07-03T03:36:57;17.62;68.48
69731;SHT31;56996;48.138;11.538;2022-07-03T03:39:23;17.62;68.63
69731;SHT31;56996;48.138;11.538;2022-07-03T03:41:52;17.62;68.79
69731;SHT31;56996;48.138;11.538;2022-07-03T03:44:18;17.62;68.88
69731;SHT31;56996;48.138;11.538;2022-07-03T03:46:44;17.63;69.02
69731;SHT31;56996;48.138;11.538;2022-07-03T03:49:10;17.62;69.14
69731;SHT31;56996;48.138;11.538;2022-07-03T03:51:36;17.63;69.30
69731;SHT31;56996;48.138;11.538;2022-07-03T03:54:04;17.62;69.39
69731;SHT31;56996;48.138;11.538;2022-07-03T03:56:30;17.63;69.54
69731;SHT31;56996;48.138;11.538;2022-07-03T03:58:56;17.65;69.52
69731;SHT31;56996;48.138;11.538;2022-07-03T04:01:23;17.66;69.85
69731;SHT31;56996;48.138;11.538;2022-07-03T04:03:49;17.67;70.00
69731;SHT31;56996;48.138;11.538;2022-07-03T04:06:15;17.70;70.35
69731;SHT31;56996;48.138;11.538;2022-07-03T04:08:41;17.71;70.96
69731;SHT31;56996;48.138;11.538;2022-07-03T04:11:07;17.70;71.44
69731;SHT31;56996;48.138;11.538;2022-07-03T04:13:33;17.70;71.50
69731;SHT31;56996;48.138;11.538;2022-07-03T04:15:59;17.73;71.38
69731;SHT31;56996;48.138;11.538;2022-07-03T04:18:25;17.77;71.27
69731;SHT31;56996;48.138;11.538;2022-07-03T04:20:57;17.82;71.28
69731;SHT31;56996;48.138;11.538;2022-07-03T04:23:24;17.86;71.28
69731;SHT31;56996;48.138;11.538;2022-07-03T04:25:50;17.92;71.30
69731;SHT31;56996;48.138;11.538;2022-07-03T04:28:16;17.95;71.26
69731;SHT31;56996;48.138;11.538;2022-07-03T04:30:45;18.00;71.16
69731;SHT31;56996;48.138;11.538;2022-07-03T04:33:11;18.05;71.02
69731;SHT31;56996;48.138;11.538;2022-07-03T04:35:37;18.10;70.98
69731;SHT31;56996;48.138;11.538;2022-07-03T04:38:04;18.15;70.93
69731;SHT31;56996;48.138;11.538;2022-07-03T04:40:30;18.18;70.96
69731;SHT31;56996;48.138;11.538;2022-07-03T04:42:56;18.22;70.82
69731;SHT31;56996;48.138;11.538;2022-07-03T04:45:22;18.26;70.70
69731;SHT31;56996;48.138;11.538;2022-07-03T04:47:48;18.30;70.58
69731;SHT31;56996;48.138;11.538;2022-07-03T04:50:14;18.35;70.51
69731;SHT31;56996;48.138;11.538;2022-07-03T04:52:41;18.38;70.41
69731;SHT31;56996;48.138;11.538;2022-07-03T04:55:07;18.42;70.35
69731;SHT31;56996;48.138;11.538;2022-07-03T04:57:35;18.47;70.28
69731;SHT31;56996;48.138;11.538;2022-07-03T05:00:02;18.51;70.14
69731;SHT31;56996;48.138;11.538;2022-07-03T05:02:30;18.56;69.97
69731;SHT31;56996;48.138;11.538;2022-07-03T05:04:56;18.60;69.85
69731;SHT31;56996;48.138;11.538;2022-07-03T05:07:22;18.65;69.72
69731;SHT31;56996;48.138;11.538;2022-07-03T05:09:48;18.71;69.62
69731;SHT31;56996;48.138;11.538;2022-07-03T05:12:14;18.76;69.48
69731;SHT31;56996;48.138;11.538;2022-07-03T05:14:40;18.83;69.39
69731;SHT31;56996;48.138;11.538;2022-07-03T05:17:06;18.89;69.31
69731;SHT31;56996;48.138;11.538;2022-07-03T05:19:32;18.96;69.22
69731;SHT31;56996;48.138;11.538;2022-07-03T05:21:58;19.02;69.17
69731;SHT31;56996;48.138;11.538;2022-07-03T05:24:25;19.09;69.06
69731;SHT31;56996;48.138;11.538;2022-07-03T05:26:51;19.18;68.90
69731;SHT31;56996;48.138;11.538;2022-07-03T05:29:17;19.25;68.83
69731;SHT31;56996;48.138;11.538;2022-07-03T05:31:43;19.33;68.74
69731;SHT31;56996;48.138;11.538;2022-07-03T05:34:09;19.42;68.65
69731;SHT31;56996;48.138;11.538;2022-07-03T05:36:35;19.50;68.56
69731;SHT31;56996;48.138;11.538;2022-07-03T05:39:01;19.57;68.54
69731;SHT31;56996;48.138;11.538;2022-07-03T05:41:46;19.67;68.50
69731;SHT31;56996;48.138;11.538;2022-07-03T05:44:13;19.76;68.44
69731;SHT31;56996;48.138;11.538;2022-07-03T05:46:39;19.86;68.33
69731;SHT31;56996;48.138;11.538;2022-07-03T05:49:05;19.96;68.16
69731;SHT31;56996;48.138;11.538;2022-07-03T05:51:31;20.05;68.13
69731;SHT31;56996;48.138;11.538;2022-07-03T05:53:57;20.16;67.68
69731;SHT31;56996;48.138;11.538;2022-07-03T05:56:23;20.27;67.42
69731;SHT31;56996;48.138;11.538;2022-07-03T05:58:50;20.39;67.11
69731;SHT31;56996;48.138;11.538;2022-07-03T06:01:16;20.51;66.71
69731;SHT31;56996;48.138;11.538;2022-07-03T06:03:42;20.66;66.29
69731;SHT31;56996;48.138;11.538;2022-07-03T06:06:09;20.81;65.82
69731;SHT31;56996;48.138;11.538;2022-07-03T06:08:35;21.07;64.41
69731;SHT31;56996;48.138;11.538;2022-07-03T06:11:02;22.59;61.93
69731;SHT31;56996;48.138;11.538;2022-07-03T06:13:28;25.02;57.03
69731;SHT31;56996;48.138;11.538;2022-07-03T06:15:54;27.20;52.48
69731;SHT31;56996;48.138;11.538;2022-07-03T06:18:20;29.08;49.09
69731;SHT31;56996;48.138;11.538;2022-07-03T06:20:46;30.69;46.06
69731;SHT31;56996;48.138;11.538;2022-07-03T06:23:12;32.22;43.23
69731;SHT31;56996;48.138;11.538;2022-07-03T06:25:59;33.62;40.15
69731;SHT31;56996;48.138;11.538;2022-07-03T06:28:26;34.57;38.17
69731;SHT31;56996;48.138;11.538;2022-07-03T06:30:52;35.39;37.17
69731;SHT31;56996;48.138;11.538;2022-07-03T06:33:18;36.25;35.12
69731;SHT31;56996;48.138;11.538;2022-07-03T06:35:45;36.85;33.70
69731;SHT31;56996;48.138;11.538;2022-07-03T06:38:11;37.57;32.55
69731;SHT31;56996;48.138;11.538;2022-07-03T06:40:37;38.33;31.48
69731;SHT31;56996;48.138;11.538;2022-07-03T06:43:03;39.03;30.23
69731;SHT31;56996;48.138;11.538;2022-07-03T06:45:29;39.77;29.41
69731;SHT31;56996;48.138;11.538;2022-07-03T06:47:55;40.34;28.07
69731;SHT31;56996;48.138;11.538;2022-07-03T06:50:22;40.68;27.74
69731;SHT31;56996;48.138;11.538;2022-07-03T06:52:48;41.35;27.00
69731;SHT31;56996;48.138;11.538;2022-07-03T06:55:14;41.69;26.26
69731;SHT31;56996;48.138;11.538;2022-07-03T06:57:40;42.06;25.77
69731;SHT31;56996;48.138;11.538;2022-07-03T07:00:07;42.53;25.03
69731;SHT31;56996;48.138;11.538;2022-07-03T07:02:33;42.81;24.51
69731;SHT31;56996;48.138;11.538;2022-07-03T07:04:59;43.02;24.19
69731;SHT31;56996;48.138;11.538;2022-07-03T07:07:26;43.30;23.74
69731;SHT31;56996;48.138;11.538;2022-07-03T07:09:52;43.15;23.74
69731;SHT31;56996;48.138;11.538;2022-07-03T07:12:18;43.34;23.34
69731;SHT31;56996;48.138;11.538;2022-07-03T07:14:44;43.63;23.01
69731;SHT31;56996;48.138;11.538;2022-07-03T07:17:10;44.06;22.61
69731;SHT31;56996;48.138;11.538;2022-07-03T07:19:37;44.26;22.23
69731;SHT31;56996;48.138;11.538;2022-07-03T07:22:03;43.89;22.36
69731;SHT31;56996;48.138;11.538;2022-07-03T07:24:29;43.70;22.12
69731;SHT31;56996;48.138;11.538;2022-07-03T07:26:55;43.53;22.00
69731;SHT31;56996;48.138;11.538;2022-07-03T07:29:22;43.73;22.17
69731;SHT31;56996;48.138;11.538;2022-07-03T07:31:48;44.78;21.34
69731;SHT31;56996;48.138;11.538;2022-07-03T07:34:14;45.38;20.48
69731;SHT31;56996;48.138;11.538;2022-07-03T07:36:40;44.47;19.96
69731;SHT31;56996;48.138;11.538;2022-07-03T07:39:06;42.72;21.16
69731;SHT31;56996;48.138;11.538;2022-07-03T07:41:32;42.64;21.57
69731;SHT31;56996;48.138;11.538;2022-07-03T07:43:58;42.62;21.41
69731;SHT31;56996;48.138;11.538;2022-07-03T07:46:26;41.97;20.88
69731;SHT31;56996;48.138;11.538;2022-07-03T07:48:52;41.19;22.22
69731;SHT31;56996;48.138;11.538;2022-07-03T07:51:18;41.48;21.71
69731;SHT31;56996;48.138;11.538;2022-07-03T07:53:44;41.60;21.65
69731;SHT31;56996;48.138;11.538;2022-07-03T07:56:12;41.52;21.47
69731;SHT31;56996;48.138;11.538;2022-07-03T07:58:38;41.87;21.71
69731;SHT31;56996;48.138;11.538;2022-07-03T08:01:04;42.51;21.28
69731;SHT31;56996;48.138;11.538;2022-07-03T08:03:49;43.30;21.00
69731;SHT31;56996;48.138;11.538;2022-07-03T08:06:34;44.24;20.34
69731;SHT31;56996;48.138;11.538;2022-07-03T08:09:00;45.06;19.33
69731;SHT31;56996;48.138;11.538;2022-07-03T08:11:26;44.54;19.28
69731;SHT31;56996;48.138;11.538;2022-07-03T08:13:52;44.29;19.60
69731;SHT31;56996;48.138;11.538;2022-07-03T08:16:18;45.03;19.41
69731;SHT31;56996;48.138;11.538;2022-07-03T08:18:44;45.45;18.92
69731;SHT31;56996;48.138;11.538;2022-07-03T08:21:10;44.61;18.78
69731;SHT31;56996;48.138;11.538;2022-07-03T08:23:37;44.34;19.50
69731;SHT31;56996;48.138;11.538;2022-07-03T08:26:04;45.44;18.65
69731;SHT31;56996;48.138;11.538;2022-07-03T08:28:31;45.29;18.21
69731;SHT31;56996;48.138;11.538;2022-07-03T08:30:57;45.19;18.45
69731;SHT31;56996;48.138;11.538;2022-07-03T08:33:23;45.22;18.08
69731;SHT31;56996;48.138;11.538;2022-07-03T08:35:49;45.78;18.13
69731;SHT31;56996;48.138;11.538;2022-07-03T08:38:15;46.21;16.98
69731;SHT31;56996;48.138;11.538;2022-07-03T08:40:41;45.07;17.32
69731;SHT31;56996;48.138;11.538;2022-07-03T08:43:10;44.40;18.14
69731;SHT31;56996;48.138;11.538;2022-07-03T08:45:37;45.09;17.89
69731;SHT31;56996;48.138;11.538;2022-07-03T08:48:04;45.63;17.63
69731;SHT31;56996;48.138;11.538;2022-07-03T08:50:33;45.80;17.25
69731;SHT31;56996;48.138;11.538;2022-07-03T08:53:01;45.60;17.25
69731;SHT31;56996;48.138;11.538;2022-07-03T08:55:28;44.58;17.37
69731;SHT31;56996;48.138;11.538;2022-07-03T08:58:00;44.29;17.61
69731;SHT31;56996;48.138;11.538;2022-07-03T09:00:28;44.21;17.39
69731;SHT31;56996;48.138;11.538;2022-07-03T09:02:54;45.32;17.19
69731;SHT31;56996;48.138;11.538;2022-07-03T09:05:22;46.68;16.56
69731;SHT31;56996;48.138;11.538;2022-07-03T09:07:48;47.73;15.67
69731;SHT31;56996;48.138;11.538;2022-07-03T09:10:15;47.37;15.55
69731;SHT31;56996;48.138;11.538;2022-07-03T09:12:44;47.99;15.71
69731;SHT31;56996;48.138;11.538;2022-07-03T09:15:12;47.96;15.44
69731;SHT31;56996;48.138;11.538;2022-07-03T09:17:39;48.11;15.53
69731;SHT31;56996;48.138;11.538;2022-07-03T09:20:07;47.62;15.04
69731;SHT31;56996;48.138;11.538;2022-07-03T09:22:36;46.49;15.12
69731;SHT31;56996;48.138;11.538;2022-07-03T09:25:07;45.27;15.29
69731;SHT31;56996;48.138;11.538;2022-07-03T09:27:50;45.21;15.77
69731;SHT31;56996;48.138;11.538;2022-07-03T09:30:18;45.40;15.51
69731;SHT31;56996;48.138;11.538;2022-07-03T09:32:46;45.35;15.55
69731;SHT31;56996;48.138;11.538;2022-07-03T09:35:21;44.71;15.80
69731;SHT31;56996;48.138;11.538;2022-07-03T09:37:56;44.66;15.92
69731;SHT31;56996;48.138;11.538;2022-07-03T09:40:26;44.25;16.24
69731;SHT31;56996;48.138;11.538;2022-07-03T09:43:17;43.71;16.62
69731;SHT31;56996;48.138;11.538;2022-07-03T09:48:25;43.30;17.14
69731;SHT31;56996;48.138;11.538;2022-07-03T09:53:58;41.93;17.36
69731;SHT31;56996;48.138;11.538;2022-07-03T09:56:27;40.74;18.20
69731;SHT31;56996;48.138;11.538;2022-07-03T09:59:00;39.76;18.57
69731;SHT31;56996;48.138;11.538;2022-07-03T10:01:35;38.69;18.99
69731;SHT31;56996;48.138;11.538;2022-07-03T10:09:24;37.29;20.10
69731;SHT31;56996;48.138;11.538;2022-07-03T10:11:53;37.16;20.10
69731;SHT31;56996;48.138;11.538;2022-07-03T10:14:25;37.09;20.01
69731;SHT31;56996;48.138;11.538;2022-07-03T10:16:54;37.00;19.90
69731;SHT31;56996;48.138;11.538;2022-07-03T10:19:23;36.80;19.80
69731;SHT31;56996;48.138;11.538;2022-07-03T10:24:25;36.42;19.97
69731;SHT31;56996;48.138;11.538;2022-07-03T10:26:54;36.11;20.58
69731;SHT31;56996;48.138;11.538;2022-07-03T10:29:23;36.00;20.90
69731;SHT31;56996;48.138;11.538;2022-07-03T10:31:55;35.91;21.34
69731;SHT31;56996;48.138;11.538;2022-07-03T10:34:26;35.88;21.11
69731;SHT31;56996;48.138;11.538;2022-07-03T10:36:58;35.53;21.09
69731;SHT31;56996;48.138;11.538;2022-07-03T10:39:32;34.92;21.49
69731;SHT31;56996;48.138;11.538;2022-07-03T10:42:23;34.88;21.78
69731;SHT31;56996;48.138;11.538;2022-07-03T10:45:15;34.91;21.60
69731;SHT31;56996;48.138;11.538;2022-07-03T10:47:43;34.80;21.65
69731;SHT31;56996;48.138;11.538;2022-07-03T10:50:16;34.71;21.54
69731;SHT31;56996;48.138;11.538;2022-07-03T10:52:45;34.74;21.33
69731;SHT31;56996;48.138;11.538;2022-07-03T10:55:12;34.76;21.51
69731;SHT31;56996;48.138;11.538;2022-07-03T10:57:41;34.71;21.71
69731;SHT31;56996;48.138;11.538;2022-07-03T11:02:45;34.20;21.62
69731;SHT31;56996;48.138;11.538;2022-07-03T11:05:18;34.11;21.82
69731;SHT31;56996;48.138;11.538;2022-07-03T11:18:29;33.72;22.26
69731;SHT31;56996;48.138;11.538;2022-07-03T11:21:21;33.52;22.37
69731;SHT31;56996;48.138;11.538;2022-07-03T11:24:08;33.41;22.56
69731;SHT31;56996;48.138;11.538;2022-07-03T11:26:45;33.34;22.66
69731;SHT31;56996;48.138;11.538;2022-07-03T11:29:24;33.29;22.38
69731;SHT31;56996;48.138;11.538;2022-07-03T11:31:53;33.29;22.26
69731;SHT31;56996;48.138;11.538;2022-07-03T11:34:19;33.29;22.14
69731;SHT31;56996;48.138;11.538;2022-07-03T11:36:46;33.30;22.33
69731;SHT31;56996;48.138;11.538;2022-07-03T11:39:12;33.36;22.21
69731;SHT31;56996;48.138;11.538;2022-07-03T11:44:05;33.19;22.28
69731;SHT31;56996;48.138;11.538;2022-07-03T11:46:34;33.16;22.03
69731;SHT31;56996;48.138;11.538;2022-07-03T11:51:40;33.06;22.12
69731;SHT31;56996;48.138;11.538;2022-07-03T11:54:08;33.18;22.13
69731;SHT31;56996;48.138;11.538;2022-07-03T11:56:35;33.27;21.98
69731;SHT31;56996;48.138;11.538;2022-07-03T11:59:04;33.33;22.08
69731;SHT31;56996;48.138;11.538;2022-07-03T12:01:35;33.39;21.95
69731;SHT31;56996;48.138;11.538;2022-07-03T12:04:07;33.49;21.94
69731;SHT31;56996;48.138;11.538;2022-07-03T12:06:57;33.56;21.84
69731;SHT31;56996;48.138;11.538;2022-07-03T12:09:26;33.67;22.02
69731;SHT31;56996;48.138;11.538;2022-07-03T12:11:57;33.68;22.01
69731;SHT31;56996;48.138;11.538;2022-07-03T12:17:24;33.57;21.79
69731;SHT31;56996;48.138;11.538;2022-07-03T12:19:53;33.41;22.33
69731;SHT31;56996;48.138;11.538;2022-07-03T12:22:33;33.35;22.52
69731;SHT31;56996;48.138;11.538;2022-07-03T12:27:32;33.45;22.58
69731;SHT31;56996;48.138;11.538;2022-07-03T12:30:10;33.42;22.10
69731;SHT31;56996;48.138;11.538;2022-07-03T12:32:54;33.22;22.24
69731;SHT31;56996;48.138;11.538;2022-07-03T12:35:22;33.10;22.62
69731;SHT31;56996;48.138;11.538;2022-07-03T12:37:53;33.17;22.79
69731;SHT31;56996;48.138;11.538;2022-07-03T12:40:19;33.16;22.68
69731;SHT31;56996;48.138;11.538;2022-07-03T12:42:46;32.93;22.77
69731;SHT31;56996;48.138;11.538;2022-07-03T12:45:18;32.83;22.82
69731;SHT31;56996;48.138;11.538;2022-07-03T12:47:56;32.80;22.94
69731;SHT31;56996;48.138;11.538;2022-07-03T12:50:24;32.75;22.87
69731;SHT31;56996;48.138;11.538;2022-07-03T12:52:55;32.86;23.12
69731;SHT31;56996;48.138;11.538;2022-07-03T12:58:10;32.60;23.20
69731;SHT31;56996;48.138;11.538;2022-07-03T13:01:07;32.50;23.62
69731;SHT31;56996;48.138;11.538;2022-07-03T13:04:08;32.41;23.64
69731;SHT31;56996;48.138;11.538;2022-07-03T13:06:35;32.54;23.89
69731;SHT31;56996;48.138;11.538;2022-07-03T13:09:02;32.68;23.97
69731;SHT31;56996;48.138;11.538;2022-07-03T13:14:11;32.56;23.85
69731;SHT31;56996;48.138;11.538;2022-07-03T13:16:44;32.62;23.92
69731;SHT31;56996;48.138;11.538;2022-07-03T13:19:22;32.75;23.87
69731;SHT31;56996;48.138;11.538;2022-07-03T13:21:54;32.83;23.67
69731;SHT31;56996;48.138;11.538;2022-07-03T13:24:22;32.76;23.77
69731;SHT31;56996;48.138;11.538;2022-07-03T13:26:50;32.60;23.83
69731;SHT31;56996;48.138;11.538;2022-07-03T13:29:19;32.62;23.99
69731;SHT31;56996;48.138;11.538;2022-07-03T13:31:49;32.67;23.82
69731;SHT31;56996;48.138;11.538;2022-07-03T13:34:15;32.77;23.91
69731;SHT31;56996;48.138;11.538;2022-07-03T13:36:42;32.73;23.88
69731;SHT31;56996;48.138;11.538;2022-07-03T13:39:08;32.68;24.02
69731;SHT31;56996;48.138;11.538;2022-07-03T13:41:35;32.65;24.08
69731;SHT31;56996;48.138;11.538;2022-07-03T13:44:02;32.71;24.10
69731;SHT31;56996;48.138;11.538;2022-07-03T13:46:28;32.79;23.96
69731;SHT31;56996;48.138;11.538;2022-07-03T13:48:54;32.84;23.89
69731;SHT31;56996;48.138;11.538;2022-07-03T13:51:20;32.91;24.05
69731;SHT31;56996;48.138;11.538;2022-07-03T13:53:47;33.00;24.00
69731;SHT31;56996;48.138;11.538;2022-07-03T13:56:13;32.94;23.94
69731;SHT31;56996;48.138;11.538;2022-07-03T13:58:41;32.79;24.11
69731;SHT31;56996;48.138;11.538;2022-07-03T14:01:14;32.76;24.40
69731;SHT31;56996;48.138;11.538;2022-07-03T14:03:40;32.69;24.42
69731;SHT31;56996;48.138;11.538;2022-07-03T14:06:06;32.67;24.30
69731;SHT31;56996;48.138;11.538;2022-07-03T14:08:33;32.68;24.07
69731;SHT31;56996;48.138;11.538;2022-07-03T14:10:59;32.76;24.19
69731;SHT31;56996;48.138;11.538;2022-07-03T14:13:25;32.86;24.22
69731;SHT31;56996;48.138;11.538;2022-07-03T14:15:51;32.99;24.10
69731;SHT31;56996;48.138;11.538;2022-07-03T14:18:17;33.02;23.78
69731;SHT31;56996;48.138;11.538;2022-07-03T14:20:43;33.11;23.66
69731;SHT31;56996;48.138;11.538;2022-07-03T14:23:09;33.19;23.64
69731;SHT31;56996;48.138;11.538;2022-07-03T14:25:36;33.27;23.76
69731;SHT31;56996;48.138;11.538;2022-07-03T14:28:03;33.42;23.70
69731;SHT31;56996;48.138;11.538;2022-07-03T14:30:48;33.49;23.65
69731;SHT31;56996;48.138;11.538;2022-07-03T14:33:33;33.45;23.71
69731;SHT31;56996;48.138;11.538;2022-07-03T14:35:59;33.28;23.59
69731;SHT31;56996;48.138;11.538;2022-07-03T14:38:29;33.06;23.77
69731;SHT31;56996;48.138;11.538;2022-07-03T14:40:55;33.12;23.72
69731;SHT31;56996;48.138;11.538;2022-07-03T14:43:21;33.32;23.67
69731;SHT31;56996;48.138;11.538;2022-07-03T14:45:47;33.46;23.42
69731;SHT31;56996;48.138;11.538;2022-07-03T14:48:13;33.53;23.53
69731;SHT31;56996;48.138;11.538;2022-07-03T14:50:40;33.58;23.35
69731;SHT31;56996;48.138;11.538;2022-07-03T14:53:06;33.55;23.08
69731;SHT31;56996;48.138;11.538;2022-07-03T14:55:39;33.53;23.05
69731;SHT31;56996;48.138;11.538;2022-07-03T15:00:45;33.07;23.39
69731;SHT31;56996;48.138;11.538;2022-07-03T15:03:27;33.11;23.15
69731;SHT31;56996;48.138;11.538;2022-07-03T15:05:56;33.19;23.14
69731;SHT31;56996;48.138;11.538;2022-07-03T15:11:07;33.37;22.99
69731;SHT31;56996;48.138;11.538;2022-07-03T15:14:02;33.37;22.89
69731;SHT31;56996;48.138;11.538;2022-07-03T15:16:31;33.25;22.82
69731;SHT31;56996;48.138;11.538;2022-07-03T15:18:59;33.15;22.78
69731;SHT31;56996;48.138;11.538;2022-07-03T15:21:28;33.10;22.79
69731;SHT31;56996;48.138;11.538;2022-07-03T15:23:59;33.03;22.87
69731;SHT31;56996;48.138;11.538;2022-07-03T15:26:28;32.97;23.29
69731;SHT31;56996;48.138;11.538;2022-07-03T15:28:57;32.99;23.57
69731;SHT31;56996;48.138;11.538;2022-07-03T15:31:27;32.99;23.64
69731;SHT31;56996;48.138;11.538;2022-07-03T15:33:55;32.96;23.40
69731;SHT31;56996;48.138;11.538;2022-07-03T15:36:23;32.87;23.31
69731;SHT31;56996;48.138;11.538;2022-07-03T15:39:02;32.74;23.23
69731;SHT31;56996;48.138;11.538;2022-07-03T15:53:19;32.28;24.01
69731;SHT31;56996;48.138;11.538;2022-07-03T15:55:48;32.26;24.05
69731;SHT31;56996;48.138;11.538;2022-07-03T15:58:19;32.28;24.18
69731;SHT31;56996;48.138;11.538;2022-07-03T16:00:55;32.26;24.23
69731;SHT31;56996;48.138;11.538;2022-07-03T16:04:08;32.23;24.54
69731;SHT31;56996;48.138;11.538;2022-07-03T16:06:38;32.17;24.69
69731;SHT31;56996;48.138;11.538;2022-07-03T16:09:07;32.12;24.86
69731;SHT31;56996;48.138;11.538;2022-07-03T16:11:35;32.05;24.85
69731;SHT31;56996;48.138;11.538;2022-07-03T16:14:02;31.95;24.98
69731;SHT31;56996;48.138;11.538;2022-07-03T16:16:31;31.92;25.20
69731;SHT31;56996;48.138;11.538;2022-07-03T16:19:00;31.91;25.26
69731;SHT31;56996;48.138;11.538;2022-07-03T16:21:30;31.85;25.32
69731;SHT31;56996;48.138;11.538;2022-07-03T16:23:59;31.82;25.41
69731;SHT31;56996;48.138;11.538;2022-07-03T16:26:27;31.77;25.57
69731;SHT31;56996;48.138;11.538;2022-07-03T16:28:56;31.73;25.75
69731;SHT31;56996;48.138;11.538;2022-07-03T16:31:27;31.73;25.77
69731;SHT31;56996;48.138;11.538;2022-07-03T16:37:08;31.66;25.92
69731;SHT31;56996;48.138;11.538;2022-07-03T16:39:39;31.56;26.01
69731;SHT31;56996;48.138;11.538;2022-07-03T16:42:10;31.49;26.07
69731;SHT31;56996;48.138;11.538;2022-07-03T16:44:40;31.43;26.23
69731;SHT31;56996;48.138;11.538;2022-07-03T16:47:08;31.35;26.22
69731;SHT31;56996;48.138;11.538;2022-07-03T16:49:35;31.20;26.27
69731;SHT31;56996;48.138;11.538;2022-07-03T16:52:04;31.07;26.51
69731;SHT31;56996;48.138;11.538;2022-07-03T16:54:33;30.98;26.77
69731;SHT31;56996;48.138;11.538;2022-07-03T16:57:02;30.90;26.88
69731;SHT31;56996;48.138;11.538;2022-07-03T16:59:30;30.87;27.05
69731;SHT31;56996;48.138;11.538;2022-07-03T17:01:58;30.84;27.18
69731;SHT31;56996;48.138;11.538;2022-07-03T17:04:28;30.82;27.26
69731;SHT31;56996;48.138;11.538;2022-07-03T17:06:55;30.81;27.16
69731;SHT31;56996;48.138;11.538;2022-07-03T17:09:22;30.77;27.06
69731;SHT31;56996;48.138;11.538;2022-07-03T17:11:49;30.69;27.16
69731;SHT31;56996;48.138;11.538;2022-07-03T17:14:16;30.63;27.51
69731;SHT31;56996;48.138;11.538;2022-07-03T17:16:43;30.56;27.48
69731;SHT31;56996;48.138;11.538;2022-07-03T17:19:16;30.54;27.45
69731;SHT31;56996;48.138;11.538;2022-07-03T17:21:49;30.50;27.58